Terminal Aerodrome Forecast
Issued by NWS

Home | Current Version | Previous Version | Text Only | Print | Product List | Glossary On
Versions: 1 2 3 4 5 6 7 8 9 10 11 12 13 14 15 16
000
FTUS44 KCRP 051128
TAFALI
TAF
KALI 051128Z 0512/0612 16006KT P6SM FEW015
      TEMPO 0512/0515 BKN022
     FM051500 17013KT P6SM SCT025 SCT035
     FM052000 13017G23KT P6SM FEW050
     FM060200 15010KT P6SM SKC
     FM060800 16008KT 4SM BR SCT014=

USA.gov is the U.S. government's official web portal to all federal, state and local government web resources and services.